sensor_id;sensor_type;location;lat;lon;timestamp;P1;durP1;ratioP1;P2;durP2;ratioP2
35522;SDS011;61478;50.820;4.330;2022-12-11T00:00:01;28.77;;;21.20;;
35522;SDS011;61478;50.820;4.330;2022-12-11T00:02:29;31.02;;;22.92;;
35522;SDS011;61478;50.820;4.330;2022-12-11T00:05:00;29.25;;;22.27;;
35522;SDS011;61478;50.820;4.330;2022-12-11T00:07:26;28.50;;;20.83;;
35522;SDS011;61478;50.820;4.330;2022-12-11T00:09:52;31.25;;;21.80;;
35522;SDS011;61478;50.820;4.330;2022-12-11T00:12:18;31.60;;;23.05;;
35522;SDS011;61478;50.820;4.330;2022-12-11T00:14:50;31.55;;;23.30;;
35522;SDS011;61478;50.820;4.330;2022-12-11T00:17:19;32.10;;;24.00;;
35522;SDS011;61478;50.820;4.330;2022-12-11T00:19:45;30.38;;;23.15;;
35522;SDS011;61478;50.820;4.330;2022-12-11T00:22:11;35.42;;;23.98;;
35522;SDS011;61478;50.820;4.330;2022-12-11T00:24:38;33.08;;;24.75;;
35522;SDS011;61478;50.820;4.330;2022-12-11T00:27:09;30.38;;;23.10;;
35522;SDS011;61478;50.820;4.330;2022-12-11T00:29:35;33.78;;;23.95;;
35522;SDS011;61478;50.820;4.330;2022-12-11T00:32:01;29.73;;;22.70;;
35522;SDS011;61478;50.820;4.330;2022-12-11T00:34:27;30.23;;;22.15;;
35522;SDS011;61478;50.820;4.330;2022-12-11T00:36:59;30.55;;;23.92;;
35522;SDS011;61478;50.820;4.330;2022-12-11T00:39:29;33.38;;;23.20;;
35522;SDS011;61478;50.820;4.330;2022-12-11T00:41:57;30.20;;;23.88;;
35522;SDS011;61478;50.820;4.330;2022-12-11T00:44:27;34.45;;;26.35;;
35522;SDS011;61478;50.820;4.330;2022-12-11T00:46:55;35.65;;;24.95;;
35522;SDS011;61478;50.820;4.330;2022-12-11T00:49:24;31.20;;;24.67;;
35522;SDS011;61478;50.820;4.330;2022-12-11T00:51:53;30.95;;;24.42;;
35522;SDS011;61478;50.820;4.330;2022-12-11T00:54:22;32.90;;;24.42;;
35522;SDS011;61478;50.820;4.330;2022-12-11T00:56:48;32.33;;;24.30;;
35522;SDS011;61478;50.820;4.330;2022-12-11T00:59:14;33.58;;;24.83;;
35522;SDS011;61478;50.820;4.330;2022-12-11T01:01:41;33.40;;;24.75;;
35522;SDS011;61478;50.820;4.330;2022-12-11T01:04:10;34.58;;;25.40;;
35522;SDS011;61478;50.820;4.330;2022-12-11T01:06:41;36.28;;;25.73;;
35522;SDS011;61478;50.820;4.330;2022-12-11T01:09:17;35.42;;;25.15;;
35522;SDS011;61478;50.820;4.330;2022-12-11T01:12:12;36.50;;;25.73;;
35522;SDS011;61478;50.820;4.330;2022-12-11T01:14:38;33.45;;;24.63;;
35522;SDS011;61478;50.820;4.330;2022-12-11T01:17:04;34.80;;;24.98;;
35522;SDS011;61478;50.820;4.330;2022-12-11T01:19:29;35.05;;;25.25;;
35522;SDS011;61478;50.820;4.330;2022-12-11T01:22:01;34.40;;;25.95;;
35522;SDS011;61478;50.820;4.330;2022-12-11T01:24:33;33.55;;;24.75;;
35522;SDS011;61478;50.820;4.330;2022-12-11T01:27:04;34.13;;;24.30;;
35522;SDS011;61478;50.820;4.330;2022-12-11T01:29:42;32.50;;;25.25;;
35522;SDS011;61478;50.820;4.330;2022-12-11T01:32:11;32.30;;;23.45;;
35522;SDS011;61478;50.820;4.330;2022-12-11T01:34:39;33.38;;;25.02;;
35522;SDS011;61478;50.820;4.330;2022-12-11T01:37:06;33.38;;;24.60;;
35522;SDS011;61478;50.820;4.330;2022-12-11T01:39:31;35.13;;;24.63;;
35522;SDS011;61478;50.820;4.330;2022-12-11T01:41:58;31.75;;;24.25;;
35522;SDS011;61478;50.820;4.330;2022-12-11T01:46:51;36.33;;;26.08;;
35522;SDS011;61478;50.820;4.330;2022-12-11T01:49:17;34.10;;;25.10;;
35522;SDS011;61478;50.820;4.330;2022-12-11T01:51:50;31.55;;;24.88;;
35522;SDS011;61478;50.820;4.330;2022-12-11T01:54:26;35.03;;;24.70;;
35522;SDS011;61478;50.820;4.330;2022-12-11T01:57:02;32.30;;;24.98;;
35522;SDS011;61478;50.820;4.330;2022-12-11T01:59:34;34.20;;;26.17;;
35522;SDS011;61478;50.820;4.330;2022-12-11T02:02:14;36.30;;;25.77;;
35522;SDS011;61478;50.820;4.330;2022-12-11T02:04:47;35.13;;;27.00;;
35522;SDS011;61478;50.820;4.330;2022-12-11T02:07:18;34.50;;;26.20;;
35522;SDS011;61478;50.820;4.330;2022-12-11T02:09:45;38.50;;;26.95;;
35522;SDS011;61478;50.820;4.330;2022-12-11T02:12:22;38.55;;;27.65;;
35522;SDS011;61478;50.820;4.330;2022-12-11T02:15:01;38.03;;;27.27;;
35522;SDS011;61478;50.820;4.330;2022-12-11T02:17:43;34.55;;;26.50;;
35522;SDS011;61478;50.820;4.330;2022-12-11T02:23:37;36.33;;;26.23;;
35522;SDS011;61478;50.820;4.330;2022-12-11T02:31:23;34.20;;;26.95;;
35522;SDS011;61478;50.820;4.330;2022-12-11T02:34:03;40.00;;;26.65;;
35522;SDS011;61478;50.820;4.330;2022-12-11T02:36:44;31.92;;;25.00;;
35522;SDS011;61478;50.820;4.330;2022-12-11T02:39:15;30.55;;;23.50;;
35522;SDS011;61478;50.820;4.330;2022-12-11T02:41:45;34.97;;;25.98;;
35522;SDS011;61478;50.820;4.330;2022-12-11T02:44:14;33.33;;;25.60;;
35522;SDS011;61478;50.820;4.330;2022-12-11T02:46:43;37.10;;;25.40;;
35522;SDS011;61478;50.820;4.330;2022-12-11T02:49:12;37.38;;;25.83;;
35522;SDS011;61478;50.820;4.330;2022-12-11T02:51:43;35.42;;;27.58;;
35522;SDS011;61478;50.820;4.330;2022-12-11T02:54:15;34.85;;;25.75;;
35522;SDS011;61478;50.820;4.330;2022-12-11T02:56:48;36.22;;;27.48;;
35522;SDS011;61478;50.820;4.330;2022-12-11T02:59:31;34.10;;;25.33;;
35522;SDS011;61478;50.820;4.330;2022-12-11T03:02:01;34.42;;;26.83;;
35522;SDS011;61478;50.820;4.330;2022-12-11T03:04:30;33.88;;;26.40;;
35522;SDS011;61478;50.820;4.330;2022-12-11T03:07:01;38.22;;;27.67;;
35522;SDS011;61478;50.820;4.330;2022-12-11T03:09:38;35.75;;;26.48;;
35522;SDS011;61478;50.820;4.330;2022-12-11T03:12:06;39.58;;;29.85;;
35522;SDS011;61478;50.820;4.330;2022-12-11T03:14:34;39.70;;;28.67;;
35522;SDS011;61478;50.820;4.330;2022-12-11T03:19:46;39.83;;;27.65;;
35522;SDS011;61478;50.820;4.330;2022-12-11T03:27:55;44.38;;;32.60;;
35522;SDS011;61478;50.820;4.330;2022-12-11T03:30:28;48.95;;;31.30;;
35522;SDS011;61478;50.820;4.330;2022-12-11T03:33:09;42.30;;;31.98;;
35522;SDS011;61478;50.820;4.330;2022-12-11T03:35:44;49.00;;;32.42;;
35522;SDS011;61478;50.820;4.330;2022-12-11T03:38:26;43.42;;;31.33;;
35522;SDS011;61478;50.820;4.330;2022-12-11T03:40:59;48.22;;;32.75;;
35522;SDS011;61478;50.820;4.330;2022-12-11T03:43:30;45.42;;;32.63;;
35522;SDS011;61478;50.820;4.330;2022-12-11T03:45:57;41.25;;;30.75;;
35522;SDS011;61478;50.820;4.330;2022-12-11T03:48:26;45.90;;;33.92;;
35522;SDS011;61478;50.820;4.330;2022-12-11T03:50:57;49.67;;;33.08;;
35522;SDS011;61478;50.820;4.330;2022-12-11T03:53:25;46.00;;;32.17;;
35522;SDS011;61478;50.820;4.330;2022-12-11T03:55:51;45.72;;;33.42;;
35522;SDS011;61478;50.820;4.330;2022-12-11T03:58:22;46.15;;;32.55;;
35522;SDS011;61478;50.820;4.330;2022-12-11T04:00:51;47.28;;;34.00;;
35522;SDS011;61478;50.820;4.330;2022-12-11T04:03:21;44.88;;;32.13;;
35522;SDS011;61478;50.820;4.330;2022-12-11T04:05:50;42.58;;;32.83;;
35522;SDS011;61478;50.820;4.330;2022-12-11T04:08:17;46.72;;;33.15;;
35522;SDS011;61478;50.820;4.330;2022-12-11T04:10:47;49.30;;;33.80;;
35522;SDS011;61478;50.820;4.330;2022-12-11T04:13:38;52.53;;;36.22;;
35522;SDS011;61478;50.820;4.330;2022-12-11T04:16:05;51.67;;;34.90;;
35522;SDS011;61478;50.820;4.330;2022-12-11T04:18:32;51.03;;;34.83;;
35522;SDS011;61478;50.820;4.330;2022-12-11T04:21:16;50.47;;;33.67;;
35522;SDS011;61478;50.820;4.330;2022-12-11T04:24:00;51.45;;;34.67;;
35522;SDS011;61478;50.820;4.330;2022-12-11T04:26:45;53.35;;;35.90;;
35522;SDS011;61478;50.820;4.330;2022-12-11T04:29:12;49.45;;;33.47;;
35522;SDS011;61478;50.820;4.330;2022-12-11T04:31:38;49.55;;;34.55;;
35522;SDS011;61478;50.820;4.330;2022-12-11T04:34:04;51.50;;;34.78;;
35522;SDS011;61478;50.820;4.330;2022-12-11T04:36:30;49.25;;;34.78;;
35522;SDS011;61478;50.820;4.330;2022-12-11T04:38:56;52.03;;;34.97;;
35522;SDS011;61478;50.820;4.330;2022-12-11T04:41:25;48.83;;;34.40;;
35522;SDS011;61478;50.820;4.330;2022-12-11T04:43:51;53.97;;;36.20;;
35522;SDS011;61478;50.820;4.330;2022-12-11T04:46:18;49.85;;;34.15;;
35522;SDS011;61478;50.820;4.330;2022-12-11T04:48:45;52.88;;;36.88;;
35522;SDS011;61478;50.820;4.330;2022-12-11T04:51:12;48.88;;;34.63;;
35522;SDS011;61478;50.820;4.330;2022-12-11T04:53:38;50.65;;;35.67;;
35522;SDS011;61478;50.820;4.330;2022-12-11T04:56:05;52.67;;;33.90;;
35522;SDS011;61478;50.820;4.330;2022-12-11T04:58:32;49.72;;;35.30;;
35522;SDS011;61478;50.820;4.330;2022-12-11T05:01:05;53.05;;;35.45;;
35522;SDS011;61478;50.820;4.330;2022-12-11T05:03:44;55.42;;;36.30;;
35522;SDS011;61478;50.820;4.330;2022-12-11T05:06:10;48.22;;;34.40;;
35522;SDS011;61478;50.820;4.330;2022-12-11T05:08:37;51.25;;;33.97;;
35522;SDS011;61478;50.820;4.330;2022-12-11T05:11:06;49.47;;;34.67;;
35522;SDS011;61478;50.820;4.330;2022-12-11T05:13:33;48.05;;;34.70;;
35522;SDS011;61478;50.820;4.330;2022-12-11T05:16:03;49.22;;;33.30;;
35522;SDS011;61478;50.820;4.330;2022-12-11T05:18:30;46.95;;;33.08;;
35522;SDS011;61478;50.820;4.330;2022-12-11T05:20:57;47.20;;;32.88;;
35522;SDS011;61478;50.820;4.330;2022-12-11T05:23:25;48.80;;;34.95;;
35522;SDS011;61478;50.820;4.330;2022-12-11T05:25:55;48.83;;;34.42;;
35522;SDS011;61478;50.820;4.330;2022-12-11T05:28:32;44.17;;;32.35;;
35522;SDS011;61478;50.820;4.330;2022-12-11T05:31:04;50.40;;;33.38;;
35522;SDS011;61478;50.820;4.330;2022-12-11T05:33:50;44.83;;;32.88;;
35522;SDS011;61478;50.820;4.330;2022-12-11T05:36:25;48.38;;;34.53;;
35522;SDS011;61478;50.820;4.330;2022-12-11T05:38:59;48.85;;;34.90;;
35522;SDS011;61478;50.820;4.330;2022-12-11T05:41:29;44.70;;;32.05;;
35522;SDS011;61478;50.820;4.330;2022-12-11T05:43:58;49.53;;;31.83;;
35522;SDS011;61478;50.820;4.330;2022-12-11T05:46:25;45.83;;;33.05;;
35522;SDS011;61478;50.820;4.330;2022-12-11T05:48:54;48.55;;;34.05;;
35522;SDS011;61478;50.820;4.330;2022-12-11T05:51:22;48.38;;;33.58;;
35522;SDS011;61478;50.820;4.330;2022-12-11T05:53:48;47.20;;;32.53;;
35522;SDS011;61478;50.820;4.330;2022-12-11T05:56:16;46.05;;;33.45;;
35522;SDS011;61478;50.820;4.330;2022-12-11T05:58:48;47.85;;;33.13;;
35522;SDS011;61478;50.820;4.330;2022-12-11T06:01:21;43.97;;;31.77;;
35522;SDS011;61478;50.820;4.330;2022-12-11T06:03:58;46.78;;;32.70;;
35522;SDS011;61478;50.820;4.330;2022-12-11T06:06:25;42.33;;;33.42;;
35522;SDS011;61478;50.820;4.330;2022-12-11T06:08:52;51.85;;;34.80;;
35522;SDS011;61478;50.820;4.330;2022-12-11T06:11:20;47.25;;;32.92;;
35522;SDS011;61478;50.820;4.330;2022-12-11T06:13:47;46.80;;;33.05;;
35522;SDS011;61478;50.820;4.330;2022-12-11T06:16:14;49.28;;;35.17;;
35522;SDS011;61478;50.820;4.330;2022-12-11T06:18:41;47.80;;;33.70;;
35522;SDS011;61478;50.820;4.330;2022-12-11T06:21:16;48.35;;;34.25;;
35522;SDS011;61478;50.820;4.330;2022-12-11T06:23:44;48.53;;;35.45;;
35522;SDS011;61478;50.820;4.330;2022-12-11T06:26:12;51.05;;;34.63;;
35522;SDS011;61478;50.820;4.330;2022-12-11T06:28:41;49.13;;;33.70;;
35522;SDS011;61478;50.820;4.330;2022-12-11T06:31:09;50.92;;;35.63;;
35522;SDS011;61478;50.820;4.330;2022-12-11T06:33:38;51.17;;;34.55;;
35522;SDS011;61478;50.820;4.330;2022-12-11T06:36:10;51.22;;;34.95;;
35522;SDS011;61478;50.820;4.330;2022-12-11T06:38:40;53.88;;;35.55;;
35522;SDS011;61478;50.820;4.330;2022-12-11T06:41:09;51.05;;;35.63;;
35522;SDS011;61478;50.820;4.330;2022-12-11T06:43:39;52.75;;;36.47;;
35522;SDS011;61478;50.820;4.330;2022-12-11T06:46:13;49.35;;;34.75;;
35522;SDS011;61478;50.820;4.330;2022-12-11T06:48:46;52.00;;;35.78;;
35522;SDS011;61478;50.820;4.330;2022-12-11T06:51:19;51.08;;;35.55;;
35522;SDS011;61478;50.820;4.330;2022-12-11T06:53:50;54.60;;;37.53;;
35522;SDS011;61478;50.820;4.330;2022-12-11T06:56:18;54.78;;;38.72;;
35522;SDS011;61478;50.820;4.330;2022-12-11T06:58:44;51.03;;;35.35;;
35522;SDS011;61478;50.820;4.330;2022-12-11T07:01:14;52.70;;;36.95;;
35522;SDS011;61478;50.820;4.330;2022-12-11T07:03:40;50.20;;;35.20;;
35522;SDS011;61478;50.820;4.330;2022-12-11T07:06:06;54.22;;;35.17;;
35522;SDS011;61478;50.820;4.330;2022-12-11T07:08:35;53.90;;;34.20;;
35522;SDS011;61478;50.820;4.330;2022-12-11T07:11:05;49.25;;;34.53;;
35522;SDS011;61478;50.820;4.330;2022-12-11T07:13:32;45.22;;;31.48;;
35522;SDS011;61478;50.820;4.330;2022-12-11T07:15:59;46.67;;;33.08;;
35522;SDS011;61478;50.820;4.330;2022-12-11T07:18:34;49.63;;;33.53;;
35522;SDS011;61478;50.820;4.330;2022-12-11T07:21:05;47.38;;;33.00;;
35522;SDS011;61478;50.820;4.330;2022-12-11T07:23:33;47.13;;;32.30;;
35522;SDS011;61478;50.820;4.330;2022-12-11T07:26:03;50.65;;;33.53;;
35522;SDS011;61478;50.820;4.330;2022-12-11T07:28:30;47.60;;;32.67;;
35522;SDS011;61478;50.820;4.330;2022-12-11T07:30:56;45.15;;;32.35;;
35522;SDS011;61478;50.820;4.330;2022-12-11T07:33:23;51.10;;;33.65;;
35522;SDS011;61478;50.820;4.330;2022-12-11T07:35:51;51.67;;;34.92;;
35522;SDS011;61478;50.820;4.330;2022-12-11T07:38:18;52.85;;;34.80;;
35522;SDS011;61478;50.820;4.330;2022-12-11T07:40:44;49.75;;;35.22;;
35522;SDS011;61478;50.820;4.330;2022-12-11T07:43:10;56.85;;;35.42;;
35522;SDS011;61478;50.820;4.330;2022-12-11T07:45:39;53.00;;;35.53;;
35522;SDS011;61478;50.820;4.330;2022-12-11T07:48:06;50.58;;;34.80;;
35522;SDS011;61478;50.820;4.330;2022-12-11T07:50:32;55.28;;;35.22;;
35522;SDS011;61478;50.820;4.330;2022-12-11T07:52:58;51.05;;;34.25;;
35522;SDS011;61478;50.820;4.330;2022-12-11T07:55:23;53.35;;;34.60;;
35522;SDS011;61478;50.820;4.330;2022-12-11T07:57:49;53.22;;;33.88;;
35522;SDS011;61478;50.820;4.330;2022-12-11T08:00:15;44.25;;;30.95;;
35522;SDS011;61478;50.820;4.330;2022-12-11T08:02:41;52.35;;;32.28;;
35522;SDS011;61478;50.820;4.330;2022-12-11T08:05:07;43.35;;;30.85;;
35522;SDS011;61478;50.820;4.330;2022-12-11T08:07:36;50.38;;;33.58;;
35522;SDS011;61478;50.820;4.330;2022-12-11T08:10:02;47.53;;;32.35;;
35522;SDS011;61478;50.820;4.330;2022-12-11T08:12:29;45.80;;;31.20;;
35522;SDS011;61478;50.820;4.330;2022-12-11T08:14:54;43.42;;;30.73;;
35522;SDS011;61478;50.820;4.330;2022-12-11T08:17:20;47.22;;;30.20;;
35522;SDS011;61478;50.820;4.330;2022-12-11T08:19:47;47.20;;;31.33;;
35522;SDS011;61478;50.820;4.330;2022-12-11T08:22:16;47.28;;;30.70;;
35522;SDS011;61478;50.820;4.330;2022-12-11T08:24:43;46.83;;;30.73;;
35522;SDS011;61478;50.820;4.330;2022-12-11T08:27:11;43.05;;;29.95;;
35522;SDS011;61478;50.820;4.330;2022-12-11T08:29:37;42.38;;;30.50;;
35522;SDS011;61478;50.820;4.330;2022-12-11T08:32:03;36.83;;;25.95;;
35522;SDS011;61478;50.820;4.330;2022-12-11T08:34:29;41.90;;;28.83;;
35522;SDS011;61478;50.820;4.330;2022-12-11T08:36:55;41.40;;;29.00;;
35522;SDS011;61478;50.820;4.330;2022-12-11T08:39:21;41.92;;;29.23;;
35522;SDS011;61478;50.820;4.330;2022-12-11T08:41:50;43.35;;;29.63;;
35522;SDS011;61478;50.820;4.330;2022-12-11T08:44:17;42.10;;;30.13;;
35522;SDS011;61478;50.820;4.330;2022-12-11T08:46:44;44.97;;;30.55;;
35522;SDS011;61478;50.820;4.330;2022-12-11T08:49:10;42.53;;;29.48;;
35522;SDS011;61478;50.820;4.330;2022-12-11T08:51:36;43.38;;;29.80;;
35522;SDS011;61478;50.820;4.330;2022-12-11T08:54:02;43.33;;;30.55;;
35522;SDS011;61478;50.820;4.330;2022-12-11T08:56:28;43.38;;;28.40;;
35522;SDS011;61478;50.820;4.330;2022-12-11T08:58:54;40.38;;;27.52;;
35522;SDS011;61478;50.820;4.330;2022-12-11T09:01:24;38.90;;;27.13;;
35522;SDS011;61478;50.820;4.330;2022-12-11T09:03:54;36.55;;;25.45;;
35522;SDS011;61478;50.820;4.330;2022-12-11T09:06:21;37.28;;;26.20;;
35522;SDS011;61478;50.820;4.330;2022-12-11T09:08:53;42.95;;;27.35;;
35522;SDS011;61478;50.820;4.330;2022-12-11T09:11:23;41.70;;;28.95;;
35522;SDS011;61478;50.820;4.330;2022-12-11T09:13:57;37.78;;;25.13;;
35522;SDS011;61478;50.820;4.330;2022-12-11T09:16:24;36.47;;;26.25;;
35522;SDS011;61478;50.820;4.330;2022-12-11T09:18:53;39.03;;;26.33;;
35522;SDS011;61478;50.820;4.330;2022-12-11T09:21:22;38.65;;;26.75;;
35522;SDS011;61478;50.820;4.330;2022-12-11T09:23:54;43.10;;;27.58;;
35522;SDS011;61478;50.820;4.330;2022-12-11T09:26:21;44.97;;;31.88;;
35522;SDS011;61478;50.820;4.330;2022-12-11T09:28:47;44.25;;;29.05;;
35522;SDS011;61478;50.820;4.330;2022-12-11T09:31:16;39.35;;;28.38;;
35522;SDS011;61478;50.820;4.330;2022-12-11T09:33:51;40.83;;;27.05;;
35522;SDS011;61478;50.820;4.330;2022-12-11T09:36:19;38.70;;;27.17;;
35522;SDS011;61478;50.820;4.330;2022-12-11T09:38:45;38.50;;;26.58;;
35522;SDS011;61478;50.820;4.330;2022-12-11T09:46:32;48.63;;;30.50;;
35522;SDS011;61478;50.820;4.330;2022-12-11T09:49:00;41.58;;;28.13;;
35522;SDS011;61478;50.820;4.330;2022-12-11T09:53:53;42.95;;;27.83;;
35522;SDS011;61478;50.820;4.330;2022-12-11T09:56:25;41.33;;;27.73;;
35522;SDS011;61478;50.820;4.330;2022-12-11T10:05:00;43.33;;;28.92;;
35522;SDS011;61478;50.820;4.330;2022-12-11T10:07:52;46.88;;;29.00;;
35522;SDS011;61478;50.820;4.330;2022-12-11T10:15:42;42.97;;;28.75;;
35522;SDS011;61478;50.820;4.330;2022-12-11T10:18:18;46.45;;;29.95;;
35522;SDS011;61478;50.820;4.330;2022-12-11T10:20:47;44.95;;;29.95;;
35522;SDS011;61478;50.820;4.330;2022-12-11T10:23:16;43.60;;;29.50;;
35522;SDS011;61478;50.820;4.330;2022-12-11T10:25:48;45.75;;;28.60;;
35522;SDS011;61478;50.820;4.330;2022-12-11T10:28:19;51.42;;;30.27;;
35522;SDS011;61478;50.820;4.330;2022-12-11T10:30:50;49.83;;;30.98;;
35522;SDS011;61478;50.820;4.330;2022-12-11T10:33:27;44.90;;;30.75;;
35522;SDS011;61478;50.820;4.330;2022-12-11T10:35:55;46.72;;;30.23;;
35522;SDS011;61478;50.820;4.330;2022-12-11T10:38:32;53.10;;;32.10;;
35522;SDS011;61478;50.820;4.330;2022-12-11T10:41:03;48.47;;;30.35;;
35522;SDS011;61478;50.820;4.330;2022-12-11T10:43:38;47.22;;;30.33;;
35522;SDS011;61478;50.820;4.330;2022-12-11T10:46:29;45.38;;;29.33;;
35522;SDS011;61478;50.820;4.330;2022-12-11T10:48:54;48.83;;;29.60;;
35522;SDS011;61478;50.820;4.330;2022-12-11T10:54:05;52.55;;;33.22;;
35522;SDS011;61478;50.820;4.330;2022-12-11T10:56:43;47.30;;;28.45;;
35522;SDS011;61478;50.820;4.330;2022-12-11T10:59:17;44.38;;;27.75;;
35522;SDS011;61478;50.820;4.330;2022-12-11T11:02:17;45.55;;;25.55;;
35522;SDS011;61478;50.820;4.330;2022-12-11T11:04:48;49.00;;;28.02;;
35522;SDS011;61478;50.820;4.330;2022-12-11T11:07:20;42.53;;;25.65;;
35522;SDS011;61478;50.820;4.330;2022-12-11T11:09:48;43.05;;;25.40;;
35522;SDS011;61478;50.820;4.330;2022-12-11T11:12:20;38.72;;;24.13;;
35522;SDS011;61478;50.820;4.330;2022-12-11T11:15:05;41.45;;;24.52;;
35522;SDS011;61478;50.820;4.330;2022-12-11T11:17:42;43.65;;;24.60;;
35522;SDS011;61478;50.820;4.330;2022-12-11T11:20:15;45.50;;;27.23;;
35522;SDS011;61478;50.820;4.330;2022-12-11T11:22:44;47.90;;;27.15;;
35522;SDS011;61478;50.820;4.330;2022-12-11T11:25:17;41.22;;;24.88;;
35522;SDS011;61478;50.820;4.330;2022-12-11T11:27:49;42.00;;;24.80;;
35522;SDS011;61478;50.820;4.330;2022-12-11T11:30:29;39.88;;;24.90;;
35522;SDS011;61478;50.820;4.330;2022-12-11T11:33:00;41.97;;;25.83;;
35522;SDS011;61478;50.820;4.330;2022-12-11T11:35:54;42.17;;;25.45;;
35522;SDS011;61478;50.820;4.330;2022-12-11T11:38:33;43.67;;;24.90;;
35522;SDS011;61478;50.820;4.330;2022-12-11T11:41:10;43.33;;;23.50;;
35522;SDS011;61478;50.820;4.330;2022-12-11T11:43:46;45.28;;;24.17;;
35522;SDS011;61478;50.820;4.330;2022-12-11T11:46:23;60.30;;;30.10;;
35522;SDS011;61478;50.820;4.330;2022-12-11T11:48:59;34.33;;;22.17;;
35522;SDS011;61478;50.820;4.330;2022-12-11T11:51:53;43.65;;;22.73;;
35522;SDS011;61478;50.820;4.330;2022-12-11T11:54:24;33.33;;;19.77;;
35522;SDS011;61478;50.820;4.330;2022-12-11T11:56:57;44.47;;;22.10;;
35522;SDS011;61478;50.820;4.330;2022-12-11T12:02:08;90.03;;;56.60;;
35522;SDS011;61478;50.820;4.330;2022-12-11T12:04:39;30.63;;;18.95;;
35522;SDS011;61478;50.820;4.330;2022-12-11T12:10:02;30.80;;;18.92;;
35522;SDS011;61478;50.820;4.330;2022-12-11T12:18:45;32.78;;;20.05;;
35522;SDS011;61478;50.820;4.330;2022-12-11T12:21:30;34.67;;;20.02;;
35522;SDS011;61478;50.820;4.330;2022-12-11T12:26:37;32.53;;;21.33;;
35522;SDS011;61478;50.820;4.330;2022-12-11T12:34:43;35.97;;;22.38;;
35522;SDS011;61478;50.820;4.330;2022-12-11T12:37:25;44.65;;;24.65;;
35522;SDS011;61478;50.820;4.330;2022-12-11T12:46:00;48.83;;;26.27;;
35522;SDS011;61478;50.820;4.330;2022-12-11T12:48:30;43.67;;;28.02;;
35522;SDS011;61478;50.820;4.330;2022-12-11T12:50:57;47.08;;;29.35;;
35522;SDS011;61478;50.820;4.330;2022-12-11T12:53:35;40.53;;;26.25;;
35522;SDS011;61478;50.820;4.330;2022-12-11T12:56:02;41.90;;;24.90;;
35522;SDS011;61478;50.820;4.330;2022-12-11T13:03:48;47.28;;;27.60;;
35522;SDS011;61478;50.820;4.330;2022-12-11T13:06:15;43.35;;;25.35;;
35522;SDS011;61478;50.820;4.330;2022-12-11T13:08:51;42.47;;;25.13;;
35522;SDS011;61478;50.820;4.330;2022-12-11T13:11:18;39.63;;;24.98;;
35522;SDS011;61478;50.820;4.330;2022-12-11T13:18:59;42.63;;;25.25;;
35522;SDS011;61478;50.820;4.330;2022-12-11T13:21:27;40.05;;;25.30;;
35522;SDS011;61478;50.820;4.330;2022-12-11T13:26:46;43.83;;;26.83;;
35522;SDS011;61478;50.820;4.330;2022-12-11T13:29:31;47.05;;;27.15;;
35522;SDS011;61478;50.820;4.330;2022-12-11T13:34:32;47.65;;;28.75;;
35522;SDS011;61478;50.820;4.330;2022-12-11T13:37:43;49.30;;;27.90;;
35522;SDS011;61478;50.820;4.330;2022-12-11T13:40:27;42.03;;;26.15;;
35522;SDS011;61478;50.820;4.330;2022-12-11T13:42:54;46.90;;;29.40;;
35522;SDS011;61478;50.820;4.330;2022-12-11T13:45:28;49.15;;;29.30;;
35522;SDS011;61478;50.820;4.330;2022-12-11T13:48:04;47.45;;;27.90;;
35522;SDS011;61478;50.820;4.330;2022-12-11T13:50:56;47.08;;;28.00;;
35522;SDS011;61478;50.820;4.330;2022-12-11T13:53:23;50.75;;;29.65;;
35522;SDS011;61478;50.820;4.330;2022-12-11T13:55:58;51.10;;;29.13;;
35522;SDS011;61478;50.820;4.330;2022-12-11T13:58:29;47.03;;;28.50;;
35522;SDS011;61478;50.820;4.330;2022-12-11T14:03:37;47.03;;;28.73;;
35522;SDS011;61478;50.820;4.330;2022-12-11T14:06:04;49.50;;;28.63;;
35522;SDS011;61478;50.820;4.330;2022-12-11T14:08:35;51.03;;;29.15;;
35522;SDS011;61478;50.820;4.330;2022-12-11T14:11:04;51.58;;;28.02;;
35522;SDS011;61478;50.820;4.330;2022-12-11T14:13:31;53.15;;;28.63;;
35522;SDS011;61478;50.820;4.330;2022-12-11T14:15:59;51.85;;;30.10;;
35522;SDS011;61478;50.820;4.330;2022-12-11T14:18:27;51.03;;;29.67;;
35522;SDS011;61478;50.820;4.330;2022-12-11T14:20:56;53.97;;;30.88;;
35522;SDS011;61478;50.820;4.330;2022-12-11T14:23:24;53.63;;;29.98;;
35522;SDS011;61478;50.820;4.330;2022-12-11T14:28:19;49.60;;;29.65;;
35522;SDS011;61478;50.820;4.330;2022-12-11T14:30:48;49.08;;;29.83;;
35522;SDS011;61478;50.820;4.330;2022-12-11T14:33:16;48.88;;;29.55;;
35522;SDS011;61478;50.820;4.330;2022-12-11T14:35:45;50.97;;;30.02;;
35522;SDS011;61478;50.820;4.330;2022-12-11T14:38:15;71.00;;;42.78;;
35522;SDS011;61478;50.820;4.330;2022-12-11T14:40:46;50.33;;;30.35;;
35522;SDS011;61478;50.820;4.330;2022-12-11T14:43:19;42.58;;;28.15;;
35522;SDS011;61478;50.820;4.330;2022-12-11T14:46:03;43.13;;;27.67;;
35522;SDS011;61478;50.820;4.330;2022-12-11T14:48:41;46.03;;;28.75;;
35522;SDS011;61478;50.820;4.330;2022-12-11T14:51:11;41.60;;;27.35;;
35522;SDS011;61478;50.820;4.330;2022-12-11T14:53:42;41.05;;;26.55;;
35522;SDS011;61478;50.820;4.330;2022-12-11T14:56:16;42.63;;;26.42;;
35522;SDS011;61478;50.820;4.330;2022-12-11T14:59:13;44.08;;;26.55;;
35522;SDS011;61478;50.820;4.330;2022-12-11T15:01:43;37.97;;;26.33;;
35522;SDS011;61478;50.820;4.330;2022-12-11T15:06:43;44.20;;;25.83;;
35522;SDS011;61478;50.820;4.330;2022-12-11T15:11:46;40.42;;;24.92;;
35522;SDS011;61478;50.820;4.330;2022-12-11T15:14:14;34.53;;;23.65;;
35522;SDS011;61478;50.820;4.330;2022-12-11T15:16:45;32.60;;;22.52;;
35522;SDS011;61478;50.820;4.330;2022-12-11T15:19:24;29.45;;;21.38;;
35522;SDS011;61478;50.820;4.330;2022-12-11T15:22:04;32.80;;;22.15;;
35522;SDS011;61478;50.820;4.330;2022-12-11T15:24:36;34.15;;;23.85;;
35522;SDS011;61478;50.820;4.330;2022-12-11T15:27:23;34.30;;;22.48;;
35522;SDS011;61478;50.820;4.330;2022-12-11T15:29:56;32.80;;;22.95;;
35522;SDS011;61478;50.820;4.330;2022-12-11T15:32:22;28.98;;;21.63;;
35522;SDS011;61478;50.820;4.330;2022-12-11T15:34:49;31.88;;;22.00;;
35522;SDS011;61478;50.820;4.330;2022-12-11T15:37:17;33.58;;;23.15;;
35522;SDS011;61478;50.820;4.330;2022-12-11T15:39:44;35.47;;;23.42;;
35522;SDS011;61478;50.820;4.330;2022-12-11T15:42:11;33.75;;;22.30;;
35522;SDS011;61478;50.820;4.330;2022-12-11T15:44:43;34.20;;;22.33;;
35522;SDS011;61478;50.820;4.330;2022-12-11T15:47:19;29.85;;;20.52;;
35522;SDS011;61478;50.820;4.330;2022-12-11T15:49:52;30.88;;;21.73;;
35522;SDS011;61478;50.820;4.330;2022-12-11T15:52:24;30.80;;;21.67;;
35522;SDS011;61478;50.820;4.330;2022-12-11T15:54:50;47.03;;;29.67;;
35522;SDS011;61478;50.820;4.330;2022-12-11T15:57:20;29.98;;;20.58;;
35522;SDS011;61478;50.820;4.330;2022-12-11T15:59:48;28.13;;;20.10;;
35522;SDS011;61478;50.820;4.330;2022-12-11T16:02:15;26.60;;;19.05;;
35522;SDS011;61478;50.820;4.330;2022-12-11T16:04:41;27.92;;;20.20;;
35522;SDS011;61478;50.820;4.330;2022-12-11T16:07:18;31.23;;;19.70;;
35522;SDS011;61478;50.820;4.330;2022-12-11T16:09:46;28.88;;;19.50;;
35522;SDS011;61478;50.820;4.330;2022-12-11T16:12:12;25.90;;;18.67;;
35522;SDS011;61478;50.820;4.330;2022-12-11T16:14:39;28.77;;;19.15;;